Time;durP1;ratioP1;P1;durP2;ratioP2;P2;SDS_P1;SDS_P2;PMS_P1;PMS_P2;Temp;Humidity;BMP_temperature;BMP_pressure;BME280_temperature;BME280_humidity;BME280_pressure;Samples;Min_cycle;Max_cycle;Signal;HPM_P1;HPM_P2
2022/09/04 00:02:32;;;;;;;0.30;0.30;;;20.40;99.90;21.10;101138.00;;;;5035749;28;20284;-69
2022/09/04 00:05:34;;;;;;;0.30;0.30;;;20.40;99.90;21.30;101169.00;;;;5034782;28;20520;-69
2022/09/04 00:08:56;;;;;;;0.60;0.60;;;20.40;99.90;21.30;101165.00;;;;5034391;28;20503;-69
2022/09/04 00:11:49;;;;;;;0.30;0.30;;;20.40;99.90;21.60;101138.00;;;;5013675;28;20213;-69
2022/09/04 00:14:35;;;;;;;0.28;0.28;;;20.50;99.90;21.60;101137.00;;;;5034548;28;20183;-69
2022/09/04 00:17:10;;;;;;;0.57;0.57;;;20.60;99.90;21.50;101171.00;;;;5035456;28;20178;-69
2022/09/04 00:19:42;;;;;;;0.30;0.30;;;20.50;99.90;21.50;101177.00;;;;5033955;28;20178;-69
2022/09/04 00:22:55;;;;;;;0.30;0.30;;;20.50;99.90;21.80;101177.00;;;;5050534;28;20241;-69
2022/09/04 00:25:32;;;;;;;0.30;0.30;;;20.60;99.90;21.60;101179.00;;;;5033945;28;20182;-69
2022/09/04 00:28:28;;;;;;;0.30;0.30;;;20.60;99.90;21.60;101173.00;;;;5035398;28;20178;-69
2022/09/04 00:31:24;;;;;;;0.30;0.30;;;20.50;99.90;21.30;101183.00;;;;5035367;28;20182;-69
2022/09/04 00:34:55;;;;;;;0.30;0.30;;;20.40;99.90;20.80;101187.00;;;;5034412;28;20653;-69
2022/09/04 00:37:36;;;;;;;0.30;0.30;;;20.30;99.90;21.00;101191.00;;;;5055124;28;20233;-69
2022/09/04 00:40:32;;;;;;;0.30;0.30;;;20.10;99.90;21.30;101198.00;;;;5033888;28;20651;-69
2022/09/04 00:43:19;;;;;;;0.40;0.40;;;20.20;99.90;21.10;101197.00;;;;5025945;28;20198;-69
2022/09/04 00:46:06;;;;;;;0.60;0.60;;;20.20;99.90;22.00;101191.00;;;;5050203;28;20658;-70
2022/09/04 00:48:47;;;;;;;0.65;0.65;;;20.50;99.90;21.80;101162.00;;;;5033729;28;20215;-70
2022/09/04 00:51:20;;;;;;;0.43;0.43;;;20.60;99.90;22.30;101203.00;;;;5050221;28;20273;-70
2022/09/04 00:54:21;;;;;;;0.30;0.30;;;20.90;99.90;22.40;101204.00;;;;5050449;28;20189;-70
2022/09/04 00:57:17;;;;;;;0.30;0.30;;;21.10;99.90;22.70;101165.00;;;;5022434;28;20207;-70
2022/09/04 01:00:14;;;;;;;0.30;0.30;;;21.20;99.90;22.20;101189.00;;;;5033514;28;20178;-70
2022/09/04 01:03:17;;;;;;;0.40;0.40;;;21.10;99.90;22.30;101202.00;;;;5033560;28;20706;-69
2022/09/04 01:06:39;;;;;;;0.30;0.30;;;21.10;99.90;21.90;101201.00;;;;5049910;28;20185;-69
2022/09/04 01:09:36;;;;;;;0.30;0.30;;;20.80;99.90;21.90;101210.00;;;;5050037;28;20185;-69
2022/09/04 01:12:44;;;;;;;0.50;0.50;;;20.60;99.90;21.00;101179.00;;;;5034349;28;20601;-69
2022/09/04 01:15:22;;;;;;;1.27;1.17;;;20.40;99.90;21.00;101219.00;;;;5033106;28;20251;-69
2022/09/04 01:18:19;;;;;;;0.40;0.40;;;20.20;99.90;20.70;101210.00;;;;5033421;28;20567;-69
2022/09/04 01:21:11;;;;;;;0.30;0.30;;;19.90;99.90;21.10;101213.00;;;;5033008;28;20180;-69
2022/09/04 01:24:28;;;;;;;0.40;0.40;;;19.80;99.90;20.70;101224.00;;;;5049622;28;20231;-69
2022/09/04 01:27:18;;;;;;;0.40;0.40;;;19.90;99.90;21.10;101221.00;;;;5033210;28;20183;-69
2022/09/04 01:30:10;;;;;;;0.60;0.60;;;19.90;99.90;21.60;101179.00;;;;5065696;28;20180;-69
2022/09/04 01:33:28;;;;;;;0.50;0.50;;;20.20;99.90;21.40;101221.00;;;;5034055;28;20248;-69
2022/09/04 01:36:14;;;;;;;0.40;0.40;;;20.20;99.90;21.60;101217.00;;;;5033992;28;20227;-69
2022/09/04 01:38:52;;;;;;;0.40;0.40;;;20.30;99.90;21.70;101213.00;;;;5032538;28;20184;-69
2022/09/04 01:41:26;;;;;;;0.40;0.40;;;20.40;99.90;21.80;101210.00;;;;5049142;28;20640;-69
2022/09/04 01:43:52;;;;;;;0.40;0.40;;;20.40;99.90;21.90;101197.00;;;;5031900;28;20268;-69
2022/09/04 01:46:27;;;;;;;0.40;0.40;;;20.60;99.90;21.00;101220.00;;;;5032823;28;20307;-69
2022/09/04 01:49:22;;;;;;;0.30;0.30;;;20.20;99.90;20.80;101225.00;;;;5033718;28;20182;-69
2022/09/04 01:52:06;;;;;;;0.50;0.50;;;19.90;99.90;21.20;101239.00;;;;5033530;28;20227;-70
2022/09/04 01:55:03;;;;;;;0.40;0.40;;;19.90;99.90;20.60;101194.00;;;;5033525;28;20208;-69
2022/09/04 01:57:33;;;;;;;0.40;0.40;;;19.70;99.90;20.20;101235.00;;;;5033716;28;20181;-69
2022/09/04 02:00:09;;;;;;;0.40;0.40;;;19.50;99.90;20.30;101239.00;;;;5033276;28;20260;-69
2022/09/04 02:02:53;;;;;;;0.40;0.40;;;19.30;99.90;20.20;101238.00;;;;5032868;28;20204;-69
2022/09/04 02:05:47;;;;;;;0.40;0.40;;;19.20;99.90;20.50;101245.00;;;;5049017;28;20192;-69
2022/09/04 02:08:57;;;;;;;0.40;0.40;;;19.20;99.90;20.60;101241.00;;;;5033147;28;20187;-69
2022/09/04 02:11:32;;;;;;;0.40;0.40;;;19.50;99.90;19.90;101241.00;;;;5023453;28;20198;-69
2022/09/04 02:14:39;;;;;;;0.40;0.40;;;19.30;99.90;20.30;101241.00;;;;5032077;28;20684;-70
2022/09/04 02:17:17;;;;;;;0.50;0.50;;;19.20;99.90;20.10;101247.00;;;;5032196;28;20176;-70
2022/09/04 02:20:15;;;;;;;0.40;0.40;;;19.20;99.90;20.20;101209.00;;;;5032706;28;20184;-70
2022/09/04 02:23:02;;;;;;;0.40;0.40;;;19.10;99.90;19.80;101257.00;;;;5031685;28;20191;-70
2022/09/04 02:25:58;;;;;;;2.43;1.60;;;19.00;99.90;19.60;101259.00;;;;5033127;28;20187;-70
2022/09/04 02:28:55;;;;;;;9.53;1.87;;;18.90;99.90;19.60;101260.00;;;;5033020;28;20638;-70
2022/09/04 02:31:56;;;;;;;0.40;0.40;;;18.90;99.90;19.60;101224.00;;;;5025139;28;20222;-69
2022/09/04 02:34:43;;;;;;;0.40;0.40;;;18.90;99.90;19.60;101257.00;;;;5033087;28;20179;-70
2022/09/04 02:37:19;;;;;;;0.33;0.33;;;18.80;99.90;19.50;101268.00;;;;5033204;28;20217;-70
2022/09/04 02:39:59;;;;;;;0.40;0.40;;;18.80;99.90;19.40;101271.00;;;;5031795;28;20639;-70
2022/09/04 02:42:34;;;;;;;0.30;0.30;;;18.80;99.90;19.30;101272.00;;;;5031974;28;20582;-70
2022/09/04 02:45:06;;;;;;;0.33;0.33;;;18.70;99.90;19.40;101274.00;;;;5031638;28;20184;-69
2022/09/04 02:47:50;;;;;;;0.50;0.50;;;18.80;99.90;19.10;101262.00;;;;5032801;28;20188;-69
2022/09/04 02:50:37;;;;;;;0.40;0.40;;;18.60;99.90;19.40;101285.00;;;;5033337;28;20185;-69
2022/09/04 02:53:34;;;;;;;0.40;0.40;;;18.60;99.90;19.10;101280.00;;;;5032057;28;20628;-69
2022/09/04 02:56:39;;;;;;;0.40;0.40;;;18.60;99.90;19.40;101275.00;;;;5031779;28;20180;-70
2022/09/04 02:59:35;;;;;;;0.50;0.50;;;18.60;99.90;19.30;101271.00;;;;5032865;28;20178;-70
2022/09/04 03:02:25;;;;;;;0.30;0.30;;;18.60;99.90;19.60;101279.00;;;;5033764;28;20191;-70
2022/09/04 03:05:00;;;;;;;0.30;0.30;;;18.70;99.90;20.20;101278.00;;;;5031789;28;20180;-70
2022/09/04 03:07:41;;;;;;;0.40;0.40;;;18.90;99.90;20.50;101282.00;;;;5031734;28;20270;-70
2022/09/04 03:10:22;;;;;;;0.40;0.40;;;19.20;99.90;20.60;101277.00;;;;5032233;28;20239;-70
2022/09/04 03:12:54;;;;;;;0.57;0.57;;;19.30;99.90;20.20;101279.00;;;;5030849;28;20643;-70
2022/09/04 03:15:42;;;;;;;0.40;0.40;;;19.20;99.90;20.40;101257.00;;;;5032110;28;20271;-70
2022/09/04 03:18:33;;;;;;;0.40;0.40;;;19.30;99.90;19.90;101272.00;;;;5032018;28;20184;-70
2022/09/04 03:21:16;;;;;;;0.40;0.40;;;19.20;99.90;19.90;101298.00;;;;5034906;28;20185;-69
2022/09/04 03:23:53;;;;;;;0.40;0.40;;;19.00;99.90;19.50;101288.00;;;;5035060;28;20181;-69
2022/09/04 03:26:55;;;;;;;0.60;0.60;;;18.90;99.90;19.80;101287.00;;;;5036588;28;20160;-70
2022/09/04 03:33:01;;;;;;;0.40;0.40;;;18.60;99.90;19.20;101291.00;;;;5023805;28;20579;-70
2022/09/04 03:35:45;;;;;;;0.40;0.40;;;18.60;99.90;19.30;101297.00;;;;5036257;28;20181;-70
2022/09/04 03:39:01;;;;;;;0.30;0.30;;;18.50;99.90;19.70;101291.00;;;;5036179;28;20578;-70
2022/09/04 03:41:54;;;;;;;0.40;0.40;;;18.70;99.90;19.40;101265.00;;;;5051375;28;20239;-69
2022/09/04 03:44:37;;;;;;;0.70;0.70;;;18.60;99.90;19.10;101296.00;;;;5033004;28;20192;-70
2022/09/04 03:47:29;;;;;;;1.20;1.10;;;18.50;99.90;18.90;101295.00;;;;5035095;28;20179;-69
2022/09/04 03:51:06;;;;;;;0.70;0.70;;;18.30;99.90;18.90;101311.00;;;;5036032;28;20230;-69
2022/09/04 03:53:44;;;;;;;0.50;0.50;;;18.30;99.90;19.00;101308.00;;;;4977710;28;20242;-69
2022/09/04 03:56:37;;;;;;;0.70;0.70;;;18.30;99.90;18.90;101290.00;;;;5027219;28;20235;-69
2022/09/04 03:59:08;;;;;;;3.10;1.00;;;18.30;99.90;18.70;101318.00;;;;5036422;28;20197;-69
2022/09/04 04:01:59;;;;;;;0.50;0.50;;;18.20;99.90;18.70;101315.00;;;;5034579;28;20678;-70
2022/09/04 04:05:01;;;;;;;4.00;1.10;;;18.20;99.90;18.80;101327.00;;;;5034413;28;20185;-70
2022/09/04 04:08:47;;;;;;;0.40;0.40;;;18.10;99.90;18.80;101334.00;;;;5035800;28;20704;-70
2022/09/04 04:11:38;;;;;;;0.30;0.30;;;18.10;99.90;18.60;101334.00;;;;5010883;28;20663;-70
2022/09/04 04:14:36;;;;;;;0.40;0.40;;;18.00;99.90;18.70;101335.00;;;;5013723;28;20191;-71
2022/09/04 04:17:35;;;;;;;0.70;0.70;;;18.00;99.90;18.80;101293.00;;;;5018300;28;20176;-70
2022/09/04 04:20:24;;;;;;;1.53;1.43;;;18.00;99.90;18.60;101294.00;;;;5035463;28;20227;-70
2022/09/04 04:23:20;;;;;;;0.60;0.60;;;18.00;99.90;18.90;101328.00;;;;5035395;28;20183;-71
2022/09/04 04:26:13;;;;;;;0.40;0.40;;;18.10;99.90;19.30;101334.00;;;;5035110;28;20183;-70
2022/09/04 04:29:02;;;;;;;0.40;0.40;;;18.20;99.90;19.00;101330.00;;;;5051193;28;20283;-70
2022/09/04 04:32:09;;;;;;;0.50;0.50;;;18.20;99.90;19.10;101334.00;;;;5033608;28;20193;-69
2022/09/04 04:35:12;;;;;;;0.40;0.40;;;18.30;99.90;19.60;101335.00;;;;5034350;28;20187;-68
2022/09/04 04:38:11;;;;;;;0.47;0.47;;;18.30;99.90;19.10;101338.00;;;;5034776;28;20235;-71
2022/09/04 04:41:04;;;;;;;0.40;0.40;;;18.30;99.90;19.00;101338.00;;;;5015910;28;20671;-69
2022/09/04 04:44:14;;;;;;;0.43;0.43;;;18.20;99.90;18.70;101350.00;;;;5033665;28;20586;-69
2022/09/04 04:47:19;;;;;;;1.57;1.47;;;18.10;99.90;18.60;101345.00;;;;5033711;28;20182;-67
2022/09/04 04:50:03;;;;;;;0.40;0.40;;;18.00;99.90;18.80;101339.00;;;;5033731;28;20175;-67
2022/09/04 04:53:08;;;;;;;0.40;0.40;;;18.00;99.90;19.00;101357.00;;;;5039660;28;20719;-68
2022/09/04 04:56:16;;;;;;;0.50;0.50;;;18.00;99.90;18.50;101357.00;;;;5053445;28;20271;-67
2022/09/04 04:59:19;;;;;;;0.50;0.50;;;18.00;99.90;18.30;101376.00;;;;5051204;28;20545;-67
2022/09/04 05:02:20;;;;;;;0.40;0.40;;;17.80;99.90;18.70;101330.00;;;;5054453;28;20186;-67
2022/09/04 05:05:03;;;;;;;0.60;0.60;;;17.90;99.90;18.90;101377.00;;;;5053391;28;20537;-68
2022/09/04 05:07:59;;;;;;;0.40;0.40;;;18.00;99.90;19.10;101375.00;;;;5053978;28;20657;-68
2022/09/04 05:10:42;;;;;;;0.40;0.40;;;18.10;99.90;19.10;101367.00;;;;5053465;28;20187;-68
2022/09/04 05:13:30;;;;;;;0.97;0.97;;;18.20;99.90;18.80;101381.00;;;;5053215;28;20224;-70
2022/09/04 05:16:19;;;;;;;0.60;0.60;;;18.20;99.90;18.70;101388.00;;;;5054184;28;20232;-70
2022/09/04 05:18:59;;;;;;;0.60;0.60;;;18.10;99.90;18.60;101375.00;;;;5053085;28;20190;-69
2022/09/04 05:21:54;;;;;;;0.40;0.40;;;18.10;99.90;18.60;101389.00;;;;5052751;28;20185;-69
2022/09/04 05:24:43;;;;;;;0.40;0.40;;;18.00;99.90;19.10;101395.00;;;;5053121;28;20184;-70
2022/09/04 05:27:21;;;;;;;0.40;0.40;;;18.10;99.90;19.20;101365.00;;;;5042407;28;20656;-70
2022/09/04 05:30:04;;;;;;;0.40;0.40;;;18.20;99.90;19.50;101398.00;;;;5053985;28;20805;-70
2022/09/04 05:32:39;;;;;;;0.40;0.40;;;18.30;99.90;19.20;101396.00;;;;5053904;28;20219;-70
2022/09/04 05:35:47;;;;;;;0.40;0.40;;;18.30;99.90;19.10;101405.00;;;;5052957;28;20661;-70
2022/09/04 05:38:47;;;;;;;0.30;0.30;;;18.30;99.90;19.20;101403.00;;;;5052463;28;20182;-70
2022/09/04 05:41:29;;;;;;;0.40;0.40;;;18.20;99.90;19.40;101378.00;;;;5049722;28;20253;-70
2022/09/04 05:44:08;;;;;;;0.50;0.50;;;18.40;99.90;20.00;101413.00;;;;5054383;28;20167;-70
2022/09/04 05:46:51;;;;;;;0.43;0.43;;;18.60;99.90;19.30;101372.00;;;;5052620;28;20698;-70
2022/09/04 05:49:53;;;;;;;0.43;0.43;;;18.50;99.90;19.70;101411.00;;;;5052612;28;20203;-70
2022/09/04 05:52:43;;;;;;;17.80;16.45;;;18.80;99.90;20.50;101414.00;;;;5052076;28;20215;-70
2022/09/04 05:55:40;;;;;;;0.40;0.40;;;19.00;99.90;20.80;101415.00;;;;5054002;28;20251;-70
2022/09/04 05:58:31;;;;;;;4.37;4.20;;;19.30;99.90;19.90;101406.00;;;;5052449;28;20180;-70
2022/09/04 06:01:26;;;;;;;0.30;0.30;;;19.00;99.90;20.70;101403.00;;;;5053487;28;20189;-70
2022/09/04 06:04:13;;;;;;;0.35;0.35;;;19.20;99.90;21.70;101416.00;;;;5053598;28;20178;-70
2022/09/04 06:07:12;;;;;;;0.30;0.30;;;19.90;99.90;21.90;101373.00;;;;5053195;28;20185;-70
2022/09/04 06:10:16;;;;;;;0.20;0.20;;;20.50;99.90;22.40;101412.00;;;;5044661;28;20245;-71
2022/09/04 06:13:00;;;;;;;0.20;0.20;;;21.10;99.90;21.80;101408.00;;;;5041807;28;20225;-70
2022/09/04 06:16:01;;;;;;;1.23;1.23;;;21.00;99.90;21.30;101411.00;;;;5052215;28;20548;-71
2022/09/04 06:18:51;;;;;;;0.20;0.20;;;21.00;99.90;21.30;101417.00;;;;5053262;28;20232;-70
2022/09/04 06:21:46;;;;;;;0.20;0.20;;;20.70;99.90;22.40;101413.00;;;;5052191;28;20279;-70
2022/09/04 06:24:41;;;;;;;0.20;0.20;;;21.30;99.90;22.40;101412.00;;;;5053056;28;20166;-71
2022/09/04 06:27:47;;;;;;;0.20;0.20;;;21.60;99.90;23.20;101415.00;;;;5052347;28;20177;-71
2022/09/04 06:30:15;;;;;;;0.20;0.20;;;22.00;99.90;24.00;101422.00;;;;5052095;28;20174;-71
2022/09/04 06:33:14;;;;;;;0.45;0.40;;;22.60;99.90;24.10;101404.00;;;;5051730;28;20623;-71
2022/09/04 06:36:04;;;;;;;0.50;0.50;;;22.90;99.90;23.20;101426.00;;;;5052921;28;20275;-70
2022/09/04 06:39:00;;;;;;;1.45;1.45;;;23.00;99.90;22.70;101320.00;;;;5052909;28;20526;-70
2022/09/04 06:41:51;;;;;;;0.15;0.15;;;22.40;99.90;22.40;101430.00;;;;5053263;28;20328;-72
2022/09/04 06:44:40;;;;;;;0.20;0.20;;;22.30;99.90;23.90;101448.00;;;;5052875;28;20190;-72
2022/09/04 06:47:21;;;;;;;0.22;0.22;;;22.60;99.90;24.00;101442.00;;;;5051521;28;20178;-72
2022/09/04 06:50:16;;;;;;;0.38;0.38;;;22.80;99.90;23.30;101430.00;;;;5065376;28;20656;-72
2022/09/04 06:53:04;;;;;;;1.00;1.00;;;23.00;99.90;22.80;101451.00;;;;5052491;28;20751;-72
2022/09/04 06:56:03;;;;;;;0.20;0.20;;;22.50;99.90;23.80;101455.00;;;;5056891;28;20178;-71
2022/09/04 06:59:17;;;;;;;0.75;0.75;;;23.30;99.90;25.10;101472.00;;;;5055827;28;20183;-72
2022/09/04 07:02:10;;;;;;;0.30;0.30;;;23.60;99.90;26.40;101501.00;;;;5055517;28;20212;-72
2022/09/04 07:05:18;;;;;;;0.25;0.25;;;24.50;99.90;24.60;101494.00;;;;5056797;28;20183;-72
2022/09/04 07:08:32;;;;;;;2.20;1.75;;;24.40;99.90;24.10;101486.00;;;;5055279;28;20201;-72
2022/09/04 07:11:07;;;;;;;0.20;0.20;;;23.50;99.90;23.00;101474.00;;;;5048402;28;20653;-72
2022/09/04 07:14:15;;;;;;;0.10;0.10;;;22.80;99.90;25.20;101483.00;;;;5056804;28;20209;-72
2022/09/04 07:17:25;;;;;;;2.20;2.05;;;23.20;99.90;25.30;101500.00;;;;5054890;28;20193;-72
2022/09/04 07:20:08;;;;;;;0.40;0.40;;;24.30;99.90;25.10;101490.00;;;;5056652;28;20209;-72
2022/09/04 07:23:04;;;;;;;0.10;0.10;;;24.30;99.90;24.00;101452.00;;;;5055284;28;20170;-72
2022/09/04 07:25:59;;;;;;;0.17;0.17;;;23.70;99.90;25.20;101491.00;;;;5055145;28;20182;-72
2022/09/04 07:28:52;;;;;;;1.17;1.17;;;23.80;99.90;24.00;101449.00;;;;5038851;28;20190;-76
2022/09/04 07:31:35;;;;;;;0.20;0.20;;;23.70;99.90;25.70;101496.00;;;;5055847;28;20268;-74
2022/09/04 07:34:17;;;;;;;0.28;0.28;;;24.30;99.90;25.00;101482.00;;;;5055161;28;20198;-74
2022/09/04 07:37:05;;;;;;;0.10;0.10;;;24.30;99.90;24.90;101472.00;;;;5055387;28;20205;-73
2022/09/04 07:39:55;;;;;;;0.10;0.10;;;24.20;99.90;27.20;101531.00;;;;5056054;28;20178;-73
2022/09/04 07:42:44;;;;;;;0.65;0.65;;;25.10;99.90;27.80;101543.00;;;;5055071;28;20230;-73
2022/09/04 07:45:36;;;;;;;0.30;0.30;;;26.00;99.90;26.80;101568.00;;;;5038384;28;20175;-68
2022/09/04 07:48:30;;;;;;;2.38;1.48;;;26.20;99.90;26.00;101499.00;;;;5055743;28;20182;-73
2022/09/04 07:51:20;;;;;;;0.40;0.40;;;25.40;99.90;24.30;101511.00;;;;5054780;28;20212;-71
2022/09/04 07:54:38;;;;;;;0.20;0.20;;;24.30;99.90;27.40;101542.00;;;;5054353;28;20163;-70
2022/09/04 07:57:16;;;;;;;1.10;1.05;;;25.20;99.90;28.10;101579.00;;;;5054602;28;20222;-71
2022/09/04 07:59:53;;;;;;;0.57;0.57;;;26.50;99.90;25.40;101515.00;;;;5054664;28;20625;-71
2022/09/04 08:02:37;;;;;;;4.18;1.80;;;25.10;99.90;28.10;101562.00;;;;5054076;28;20198;-72
2022/09/04 08:05:25;;;;;;;0.20;0.20;;;26.00;99.90;29.40;101597.00;;;;5054046;28;20257;-72
2022/09/04 08:08:09;;;;;;;0.10;0.10;;;27.40;99.90;27.70;101580.00;;;;5038060;28;20186;-66
2022/09/04 08:11:06;;;;;;;0.57;0.57;;;27.00;99.90;27.20;101594.00;;;;5055236;28;20249;-67
2022/09/04 08:14:21;;;;;;;1.45;0.50;;;27.00;99.90;25.30;101527.00;;;;5054156;28;20233;-73
2022/09/04 08:16:56;;;;;;;0.10;0.10;;;25.30;99.90;27.60;101533.00;;;;5052932;28;20174;-76
2022/09/04 08:19:31;;;;;;;0.10;0.10;;;25.70;99.90;29.30;101576.00;;;;5054480;28;20174;-82
2022/09/04 08:22:37;;;;;;;0.10;0.10;;;27.10;99.90;31.10;101623.00;;;;5053712;28;20181;-71
2022/09/04 08:25:19;;;;;;;2.33;2.20;;;28.50;99.90;30.30;101640.00;;;;5054121;28;20171;-75
2022/09/04 08:28:25;;;;;;;6.55;2.15;;;28.90;99.90;29.10;101640.00;;;;5054271;28;20178;-69
2022/09/04 08:31:41;;;;;;;0.10;0.10;;;28.70;99.90;27.00;101582.00;;;;5054702;28;20253;-72
2022/09/04 08:34:46;;;;;;;0.35;0.35;;;26.60;99.90;27.10;101619.00;;;;5054583;28;20198;-71
2022/09/04 08:37:58;;;;;;;1.20;1.05;;;26.50;99.90;26.00;101581.00;;;;5053708;28;20224;-70
2022/09/04 08:41:08;;;;;;;8.65;1.23;;;25.80;99.90;27.30;101604.00;;;;5023393;28;20281;-68
2022/09/04 08:44:12;;;;;;;0.10;0.10;;;25.60;99.90;27.50;101638.00;;;;5055324;28;20207;-66
2022/09/04 08:47:04;;;;;;;1.55;0.90;;;26.30;99.90;26.20;101631.00;;;;5053207;28;20182;-70
2022/09/04 08:50:30;;;;;;;0.30;0.30;;;26.00;99.90;27.10;101599.00;;;;5052825;28;20712;-71
2022/09/04 08:53:43;;;;;;;0.47;0.47;;;26.00;99.90;27.00;101645.00;;;;5054427;28;20653;-71
2022/09/04 08:56:39;;;;;;;0.30;0.30;;;26.00;99.90;28.10;101631.00;;;;5046829;28;20190;-70
2022/09/04 08:59:34;;;;;;;0.10;0.10;;;26.60;99.90;27.40;101664.00;;;;5053217;28;20170;-71
2022/09/04 09:02:05;;;;;;;0.28;0.28;;;26.70;99.90;27.50;101664.00;;;;5053299;28;20711;-71
2022/09/04 09:04:58;;;;;;;0.10;0.10;;;26.50;99.90;28.20;101675.00;;;;5053476;28;20661;-70
2022/09/04 09:08:01;;;;;;;0.25;0.25;;;26.80;99.90;27.80;101674.00;;;;5052593;28;20209;-71
2022/09/04 09:10:35;;;;;;;0.10;0.10;;;26.80;99.90;28.60;101699.00;;;;5053165;28;20259;-72
2022/09/04 09:13:19;;;;;;;1.30;1.30;;;27.30;99.90;27.60;101678.00;;;;5053795;28;20198;-71
2022/09/04 09:15:57;;;;;;;0.20;0.20;;;26.80;99.90;29.10;101689.00;;;;5052153;28;20277;-71
2022/09/04 09:19:04;;;;;;;1.00;1.00;;;27.20;99.90;29.40;101703.00;;;;5053143;28;20272;-70
2022/09/04 09:22:14;;;;;;;0.10;0.10;;;28.00;99.90;28.90;101692.00;;;;5054157;28;20178;-69
2022/09/04 09:25:10;;;;;;;0.10;0.10;;;27.80;99.90;29.70;101705.00;;;;5053672;28;20358;-74
2022/09/04 09:27:53;;;;;;;0.25;0.25;;;28.40;99.90;28.20;101703.00;;;;5053734;28;20592;-73
2022/09/04 09:30:20;;;;;;;0.20;0.20;;;27.90;99.90;29.30;101699.00;;;;5054312;28;20185;-73
2022/09/04 09:33:48;;;;;;;0.28;0.28;;;27.80;99.90;27.80;101700.00;;;;5052122;28;20312;-72
2022/09/04 09:36:16;;;;;;;0.80;0.80;;;27.40;99.90;30.10;101711.00;;;;5037742;28;20610;-73
2022/09/04 09:39:12;;;;;;;0.40;0.40;;;28.10;99.90;28.40;101699.00;;;;5054208;28;20618;-72
2022/09/04 09:41:58;;;;;;;0.10;0.10;;;27.70;99.90;30.30;101676.00;;;;5053890;28;20645;-73
2022/09/04 09:44:46;;;;;;;0.10;0.10;;;28.10;99.90;31.30;101717.00;;;;5051916;28;20645;-74
2022/09/04 09:48:00;;;;;;;0.10;0.10;;;29.20;99.90;32.00;101713.00;;;;5052256;28;20193;-74
2022/09/04 09:50:50;;;;;;;0.20;0.20;;;29.80;99.90;29.30;101681.00;;;;5053460;28;20613;-73
2022/09/04 09:54:04;;;;;;;0.10;0.10;;;29.10;99.90;29.50;101697.00;;;;5053446;28;20653;-72
2022/09/04 09:57:05;;;;;;;0.10;0.10;;;28.40;99.90;30.70;101715.00;;;;5034841;28;20235;-74
2022/09/04 10:00:01;;;;;;;0.10;0.10;;;29.10;99.90;29.40;101705.00;;;;5053863;28;20178;-74
2022/09/04 10:03:00;;;;;;;0.30;0.30;;;28.30;99.90;28.90;101678.00;;;;5052191;28;20243;-73
2022/09/04 10:06:12;;;;;;;0.45;0.45;;;28.10;99.90;29.10;101701.00;;;;5051191;28;20232;-73
2022/09/04 10:08:59;;;;;;;0.30;0.30;;;28.20;99.90;28.50;101703.00;;;;5051420;28;20230;-72
2022/09/04 10:11:35;;;;;;;0.15;0.15;;;27.60;99.90;29.40;101716.00;;;;5051419;28;20211;-76
2022/09/04 10:14:13;;;;;;;0.57;0.57;;;27.70;99.90;29.10;101706.00;;;;5051599;28;20181;-72
2022/09/04 10:17:23;;;;;;;0.35;0.30;;;27.90;99.90;28.20;101706.00;;;;5053526;28;20170;-72
2022/09/04 10:20:45;;;;;;;0.10;0.10;;;27.50;99.90;29.90;101723.00;;;;5046656;28;20236;-73
2022/09/04 10:33:31;;;;;;;15.02;1.13;;;28.10;99.90;28.20;101691.00;;;;5070456;28;20553;-77
2022/09/04 10:36:16;;;;;;;0.55;0.55;;;27.70;99.90;28.50;101729.00;;;;5050075;28;20186;-75
2022/09/04 10:42:39;;;;;;;0.15;0.15;;;27.90;99.90;28.00;101696.00;;;;5028261;28;20194;-73
2022/09/04 10:45:39;;;;;;;0.63;0.57;;;27.60;99.90;29.40;101730.00;;;;5049199;28;20174;-74
2022/09/04 10:48:35;;;;;;;0.20;0.20;;;28.10;99.90;31.00;101691.00;;;;5049181;28;20666;-74
2022/09/04 10:51:10;;;;;;;0.10;0.10;;;29.30;99.90;30.90;101740.00;;;;5048922;28;20185;-73
2022/09/04 10:53:42;;;;;;;0.10;0.10;;;29.70;99.90;31.10;101726.00;;;;5030285;28;20236;-74
2022/09/04 10:56:28;;;;;;;0.10;0.10;;;29.70;99.90;30.90;101714.00;;;;5027455;28;20187;-69
2022/09/04 10:59:38;;;;;;;0.22;0.22;;;30.00;99.90;30.20;101716.00;;;;5047477;28;20230;-71
2022/09/04 11:02:31;;;;;;;0.65;0.30;;;29.10;99.90;31.20;101713.00;;;;5049879;28;20182;-70
2022/09/04 11:05:25;;;;;;;0.20;0.20;;;29.60;99.90;30.30;101699.00;;;;5047574;28;20198;-70
2022/09/04 11:08:59;;;;;;;0.50;0.50;;;29.40;99.20;30.40;101683.00;;;;5048565;28;20182;-71
2022/09/04 11:11:51;;;;;;;0.10;0.10;;;28.70;99.90;30.70;101692.00;;;;4992777;28;20214;-71
2022/09/04 11:14:44;;;;;;;1.85;0.30;;;29.60;98.00;30.00;101695.00;;;;5007784;28;20327;-70
2022/09/04 11:17:59;;;;;;;0.10;0.10;;;29.20;97.70;30.70;101688.00;;;;5026291;28;20289;-69
2022/09/04 11:21:17;;;;;;;0.10;0.10;;;29.10;97.30;32.30;101675.00;;;;5028104;28;20253;-69
2022/09/04 11:24:19;;;;;;;0.10;0.10;;;30.00;96.80;29.70;101689.00;;;;5027363;28;20191;-69
2022/09/04 11:27:00;;;;;;;0.43;0.40;;;29.40;96.60;30.20;101689.00;;;;5029096;28;20175;-69
2022/09/04 11:29:44;;;;;;;0.10;0.10;;;28.90;98.00;32.30;101663.00;;;;5029416;28;20185;-68
2022/09/04 11:32:58;;;;;;;0.80;0.40;;;30.00;96.80;30.20;101677.00;;;;5027991;28;20705;-68
2022/09/04 11:35:43;;;;;;;0.10;0.10;;;29.50;95.80;29.00;101691.00;;;;5046660;28;20217;-70
2022/09/04 11:38:21;;;;;;;0.30;0.30;;;28.40;96.20;29.90;101696.00;;;;5046408;28;20166;-73
2022/09/04 11:41:27;;;;;;;0.40;0.40;;;28.40;96.70;29.80;101687.00;;;;5044307;28;20178;-74
2022/09/04 11:44:14;;;;;;;0.10;0.10;;;28.50;96.00;29.70;101692.00;;;;5040970;28;20171;-72
2022/09/04 11:47:02;;;;;;;1.30;0.52;;;28.40;95.70;29.80;101697.00;;;;5036201;28;20317;-69
2022/09/04 11:50:05;;;;;;;1.42;1.38;;;28.30;95.80;29.40;101679.00;;;;5035442;28;20622;-68
2022/09/04 11:52:58;;;;;;;0.40;0.40;;;28.40;95.40;29.00;101711.00;;;;5035692;28;20260;-68
2022/09/04 11:56:01;;;;;;;1.65;1.55;;;27.90;96.40;30.00;101669.00;;;;5035651;28;20179;-67
2022/09/04 11:58:49;;;;;;;0.10;0.10;;;28.30;95.40;29.90;101674.00;;;;5034620;28;20677;-69
2022/09/04 12:01:30;;;;;;;0.10;0.10;;;28.40;96.30;29.90;101713.00;;;;5034244;28;20277;-68
2022/09/04 12:04:34;;;;;;;1.42;1.33;;;28.30;96.70;30.90;101695.00;;;;5034840;28;20232;-69
2022/09/04 12:07:22;;;;;;;0.10;0.10;;;28.90;96.60;30.20;101701.00;;;;5035539;28;20178;-68
2022/09/04 12:10:22;;;;;;;0.40;0.40;;;28.80;95.60;30.00;101680.00;;;;5035357;28;20182;-69
2022/09/04 12:13:32;;;;;;;0.25;0.25;;;28.80;95.90;28.20;101709.00;;;;5034296;28;20669;-68
2022/09/04 12:16:55;;;;;;;0.20;0.20;;;27.70;95.70;28.60;101701.00;;;;5013054;28;20713;-68
2022/09/04 12:20:16;;;;;;;0.10;0.10;;;27.30;96.80;27.80;101727.00;;;;4997214;28;20210;-68
2022/09/04 12:23:22;;;;;;;0.20;0.20;;;27.10;96.60;28.40;101718.00;;;;5013154;28;20187;-68
2022/09/04 12:26:34;;;;;;;0.10;0.10;;;27.00;97.20;29.10;101718.00;;;;4996791;28;20179;-68
2022/09/04 12:29:47;;;;;;;0.20;0.20;;;27.30;97.40;29.50;101724.00;;;;5011978;28;20179;-68
2022/09/04 12:32:55;;;;;;;0.10;0.10;;;27.70;97.30;28.20;101729.00;;;;4897511;29;20238;-68
2022/09/04 12:36:19;;;;;;;0.10;0.10;;;27.60;96.90;29.30;101725.00;;;;4897287;29;20631;-68
2022/09/04 12:39:08;;;;;;;0.30;0.30;;;27.70;97.80;28.40;101733.00;;;;4896107;29;20250;-68
2022/09/04 12:41:59;;;;;;;0.22;0.22;;;27.40;94.90;28.50;101729.00;;;;4897598;29;20707;-68
2022/09/04 12:45:01;;;;;;;0.28;0.28;;;27.20;93.60;28.10;101728.00;;;;4995993;28;20203;-68
2022/09/04 12:47:50;;;;;;;0.10;0.10;;;27.10;93.40;27.90;101733.00;;;;5033091;28;20228;-68
2022/09/04 12:54:49;;;;;;;0.10;0.10;;;27.20;93.50;28.40;101729.00;;;;5033821;28;20233;-68
2022/09/04 12:57:45;;;;;;;0.13;0.13;;;27.40;93.20;29.40;101725.00;;;;4953836;29;20190;-68
2022/09/04 13:00:57;;;;;;;0.17;0.17;;;27.90;93.20;29.30;101695.00;;;;4954059;28;20815;-68
2022/09/04 13:04:01;;;;;;;0.30;0.30;;;27.90;93.90;28.80;101732.00;;;;4954516;29;20185;-68
2022/09/04 13:07:03;;;;;;;0.20;0.20;;;27.60;94.30;28.60;101730.00;;;;4952869;29;20200;-68